sensor_id;sensor_type;location;lat;lon;timestamp;P1;durP1;ratioP1;P2;durP2;ratioP2
16965;SDS011;8599;47.852;12.070;2023-06-10T00:00:08;7.03;;;5.63;;
16965;SDS011;8599;47.852;12.070;2023-06-10T00:02:38;6.13;;;5.20;;
16965;SDS011;8599;47.852;12.070;2023-06-10T00:05:05;8.70;;;5.80;;
16965;SDS011;8599;47.852;12.070;2023-06-10T00:07:32;5.87;;;5.27;;
16965;SDS011;8599;47.852;12.070;2023-06-10T00:10:04;7.80;;;5.43;;
16965;SDS011;8599;47.852;12.070;2023-06-10T00:12:31;6.30;;;5.40;;
16965;SDS011;8599;47.852;12.070;2023-06-10T00:15:02;7.33;;;5.27;;
16965;SDS011;8599;47.852;12.070;2023-06-10T00:17:29;5.77;;;5.23;;
16965;SDS011;8599;47.852;12.070;2023-06-10T00:19:56;7.03;;;5.60;;
16965;SDS011;8599;47.852;12.070;2023-06-10T00:22:23;9.80;;;5.97;;
16965;SDS011;8599;47.852;12.070;2023-06-10T00:24:54;9.63;;;6.07;;
16965;SDS011;8599;47.852;12.070;2023-06-10T00:27:23;6.17;;;5.40;;
16965;SDS011;8599;47.852;12.070;2023-06-10T00:29:56;8.37;;;5.30;;
16965;SDS011;8599;47.852;12.070;2023-06-10T00:32:22;6.07;;;5.37;;
16965;SDS011;8599;47.852;12.070;2023-06-10T00:34:49;8.93;;;5.57;;
16965;SDS011;8599;47.852;12.070;2023-06-10T00:37:16;6.67;;;5.90;;
16965;SDS011;8599;47.852;12.070;2023-06-10T00:39:43;6.93;;;5.90;;
16965;SDS011;8599;47.852;12.070;2023-06-10T00:42:10;8.13;;;5.33;;
16965;SDS011;8599;47.852;12.070;2023-06-10T00:44:38;7.10;;;5.87;;
16965;SDS011;8599;47.852;12.070;2023-06-10T00:47:05;8.53;;;5.90;;
16965;SDS011;8599;47.852;12.070;2023-06-10T00:49:33;7.13;;;5.37;;
16965;SDS011;8599;47.852;12.070;2023-06-10T00:52:00;9.47;;;5.63;;
16965;SDS011;8599;47.852;12.070;2023-06-10T00:54:27;7.47;;;5.90;;
16965;SDS011;8599;47.852;12.070;2023-06-10T00:56:54;8.57;;;5.63;;
16965;SDS011;8599;47.852;12.070;2023-06-10T00:59:24;9.87;;;6.47;;
16965;SDS011;8599;47.852;12.070;2023-06-10T01:01:52;7.03;;;5.77;;
16965;SDS011;8599;47.852;12.070;2023-06-10T01:04:20;7.60;;;5.93;;
16965;SDS011;8599;47.852;12.070;2023-06-10T01:06:51;11.00;;;6.03;;
16965;SDS011;8599;47.852;12.070;2023-06-10T01:09:24;7.10;;;5.60;;
16965;SDS011;8599;47.852;12.070;2023-06-10T01:12:01;7.27;;;5.60;;
16965;SDS011;8599;47.852;12.070;2023-06-10T01:14:33;11.27;;;5.77;;
16965;SDS011;8599;47.852;12.070;2023-06-10T01:17:03;7.70;;;6.00;;
16965;SDS011;8599;47.852;12.070;2023-06-10T01:19:31;6.30;;;5.00;;
16965;SDS011;8599;47.852;12.070;2023-06-10T01:22:00;9.67;;;6.70;;
16965;SDS011;8599;47.852;12.070;2023-06-10T01:24:27;7.03;;;5.87;;
16965;SDS011;8599;47.852;12.070;2023-06-10T01:26:58;7.57;;;5.90;;
16965;SDS011;8599;47.852;12.070;2023-06-10T01:29:28;8.57;;;6.00;;
16965;SDS011;8599;47.852;12.070;2023-06-10T01:32:01;7.43;;;5.50;;
16965;SDS011;8599;47.852;12.070;2023-06-10T01:34:32;7.37;;;5.67;;
16965;SDS011;8599;47.852;12.070;2023-06-10T01:37:02;7.67;;;5.63;;
16965;SDS011;8599;47.852;12.070;2023-06-10T01:39:29;9.77;;;5.60;;
16965;SDS011;8599;47.852;12.070;2023-06-10T01:41:58;8.13;;;5.83;;
16965;SDS011;8599;47.852;12.070;2023-06-10T01:44:25;8.77;;;5.80;;
16965;SDS011;8599;47.852;12.070;2023-06-10T01:46:51;6.20;;;5.07;;
16965;SDS011;8599;47.852;12.070;2023-06-10T01:49:18;7.33;;;5.67;;
16965;SDS011;8599;47.852;12.070;2023-06-10T01:51:47;8.17;;;5.40;;
16965;SDS011;8599;47.852;12.070;2023-06-10T01:54:15;6.53;;;5.63;;
16965;SDS011;8599;47.852;12.070;2023-06-10T01:56:42;7.27;;;6.07;;
16965;SDS011;8599;47.852;12.070;2023-06-10T01:59:09;8.53;;;5.97;;
16965;SDS011;8599;47.852;12.070;2023-06-10T02:01:36;8.23;;;5.93;;
16965;SDS011;8599;47.852;12.070;2023-06-10T02:04:03;6.77;;;5.60;;
16965;SDS011;8599;47.852;12.070;2023-06-10T02:06:29;8.00;;;5.60;;
16965;SDS011;8599;47.852;12.070;2023-06-10T02:08:56;7.07;;;5.60;;
16965;SDS011;8599;47.852;12.070;2023-06-10T02:11:24;9.80;;;5.73;;
16965;SDS011;8599;47.852;12.070;2023-06-10T02:13:52;7.13;;;5.67;;
16965;SDS011;8599;47.852;12.070;2023-06-10T02:16:18;13.17;;;6.20;;
16965;SDS011;8599;47.852;12.070;2023-06-10T02:18:46;11.00;;;6.10;;
16965;SDS011;8599;47.852;12.070;2023-06-10T02:21:13;12.40;;;5.70;;
16965;SDS011;8599;47.852;12.070;2023-06-10T02:23:40;8.53;;;6.03;;
16965;SDS011;8599;47.852;12.070;2023-06-10T02:26:07;7.00;;;5.50;;
16965;SDS011;8599;47.852;12.070;2023-06-10T02:28:35;9.33;;;6.40;;
16965;SDS011;8599;47.852;12.070;2023-06-10T02:31:02;9.70;;;6.13;;
16965;SDS011;8599;47.852;12.070;2023-06-10T02:33:29;9.37;;;5.53;;
16965;SDS011;8599;47.852;12.070;2023-06-10T02:35:56;6.87;;;5.77;;
16965;SDS011;8599;47.852;12.070;2023-06-10T02:38:23;9.57;;;5.93;;
16965;SDS011;8599;47.852;12.070;2023-06-10T02:40:50;9.30;;;6.07;;
16965;SDS011;8599;47.852;12.070;2023-06-10T02:43:16;11.60;;;6.97;;
16965;SDS011;8599;47.852;12.070;2023-06-10T02:45:45;9.67;;;6.70;;
16965;SDS011;8599;47.852;12.070;2023-06-10T02:48:12;6.40;;;5.47;;
16965;SDS011;8599;47.852;12.070;2023-06-10T02:50:38;9.27;;;5.80;;
16965;SDS011;8599;47.852;12.070;2023-06-10T02:53:05;9.97;;;5.70;;
16965;SDS011;8599;47.852;12.070;2023-06-10T02:55:33;7.37;;;5.93;;
16965;SDS011;8599;47.852;12.070;2023-06-10T02:58:00;10.83;;;5.80;;
16965;SDS011;8599;47.852;12.070;2023-06-10T03:00:27;6.13;;;5.50;;
16965;SDS011;8599;47.852;12.070;2023-06-10T03:02:55;7.97;;;5.93;;
16965;SDS011;8599;47.852;12.070;2023-06-10T03:05:23;6.80;;;5.60;;
16965;SDS011;8599;47.852;12.070;2023-06-10T03:07:50;9.60;;;5.50;;
16965;SDS011;8599;47.852;12.070;2023-06-10T03:10:16;6.13;;;5.27;;
16965;SDS011;8599;47.852;12.070;2023-06-10T03:12:43;9.37;;;5.70;;
16965;SDS011;8599;47.852;12.070;2023-06-10T03:15:10;7.73;;;5.63;;
16965;SDS011;8599;47.852;12.070;2023-06-10T03:17:37;7.53;;;5.70;;
16965;SDS011;8599;47.852;12.070;2023-06-10T03:20:06;6.67;;;5.77;;
16965;SDS011;8599;47.852;12.070;2023-06-10T03:22:35;6.90;;;5.20;;
16965;SDS011;8599;47.852;12.070;2023-06-10T03:25:03;11.17;;;5.50;;
16965;SDS011;8599;47.852;12.070;2023-06-10T03:27:30;8.37;;;6.20;;
16965;SDS011;8599;47.852;12.070;2023-06-10T03:29:57;8.77;;;5.77;;
16965;SDS011;8599;47.852;12.070;2023-06-10T03:32:24;9.23;;;5.90;;
16965;SDS011;8599;47.852;12.070;2023-06-10T03:34:51;6.17;;;5.57;;
16965;SDS011;8599;47.852;12.070;2023-06-10T03:37:24;6.67;;;5.97;;
16965;SDS011;8599;47.852;12.070;2023-06-10T03:39:51;8.77;;;5.73;;
16965;SDS011;8599;47.852;12.070;2023-06-10T03:42:18;8.13;;;5.93;;
16965;SDS011;8599;47.852;12.070;2023-06-10T03:44:44;9.67;;;5.50;;
16965;SDS011;8599;47.852;12.070;2023-06-10T03:47:11;8.70;;;5.93;;
16965;SDS011;8599;47.852;12.070;2023-06-10T03:49:39;10.60;;;5.73;;
16965;SDS011;8599;47.852;12.070;2023-06-10T03:52:06;10.87;;;6.53;;
16965;SDS011;8599;47.852;12.070;2023-06-10T03:54:34;9.63;;;6.20;;
16965;SDS011;8599;47.852;12.070;2023-06-10T03:57:01;11.83;;;6.50;;
16965;SDS011;8599;47.852;12.070;2023-06-10T03:59:30;11.10;;;5.90;;
16965;SDS011;8599;47.852;12.070;2023-06-10T04:01:57;8.23;;;5.67;;
16965;SDS011;8599;47.852;12.070;2023-06-10T04:04:25;8.17;;;5.87;;
16965;SDS011;8599;47.852;12.070;2023-06-10T04:06:52;9.53;;;6.17;;
16965;SDS011;8599;47.852;12.070;2023-06-10T04:09:19;8.80;;;6.27;;
16965;SDS011;8599;47.852;12.070;2023-06-10T04:11:47;10.23;;;6.80;;
16965;SDS011;8599;47.852;12.070;2023-06-10T04:14:13;12.73;;;7.03;;
16965;SDS011;8599;47.852;12.070;2023-06-10T04:16:40;12.90;;;6.43;;
16965;SDS011;8599;47.852;12.070;2023-06-10T04:19:07;7.87;;;5.83;;
16965;SDS011;8599;47.852;12.070;2023-06-10T04:21:34;11.33;;;6.60;;
16965;SDS011;8599;47.852;12.070;2023-06-10T04:24:01;8.07;;;6.73;;
16965;SDS011;8599;47.852;12.070;2023-06-10T04:26:28;8.63;;;6.33;;
16965;SDS011;8599;47.852;12.070;2023-06-10T04:28:57;9.10;;;6.27;;
16965;SDS011;8599;47.852;12.070;2023-06-10T04:31:23;9.07;;;6.73;;
16965;SDS011;8599;47.852;12.070;2023-06-10T04:33:50;10.37;;;7.20;;
16965;SDS011;8599;47.852;12.070;2023-06-10T04:36:17;8.10;;;6.67;;
16965;SDS011;8599;47.852;12.070;2023-06-10T04:38:44;8.10;;;5.90;;
16965;SDS011;8599;47.852;12.070;2023-06-10T04:41:11;13.93;;;7.53;;
16965;SDS011;8599;47.852;12.070;2023-06-10T04:43:38;13.77;;;7.97;;
16965;SDS011;8599;47.852;12.070;2023-06-10T04:46:06;11.97;;;7.23;;
16965;SDS011;8599;47.852;12.070;2023-06-10T04:48:33;8.63;;;6.83;;
16965;SDS011;8599;47.852;12.070;2023-06-10T04:51:01;11.13;;;6.63;;
16965;SDS011;8599;47.852;12.070;2023-06-10T04:53:27;15.73;;;7.40;;
16965;SDS011;8599;47.852;12.070;2023-06-10T04:55:54;8.63;;;6.17;;
16965;SDS011;8599;47.852;12.070;2023-06-10T04:58:22;9.87;;;6.63;;
16965;SDS011;8599;47.852;12.070;2023-06-10T05:00:49;8.50;;;6.50;;
16965;SDS011;8599;47.852;12.070;2023-06-10T05:03:17;9.90;;;6.80;;
16965;SDS011;8599;47.852;12.070;2023-06-10T05:05:44;7.50;;;6.80;;
16965;SDS011;8599;47.852;12.070;2023-06-10T05:08:11;11.17;;;6.83;;
16965;SDS011;8599;47.852;12.070;2023-06-10T05:10:37;12.87;;;7.10;;
16965;SDS011;8599;47.852;12.070;2023-06-10T05:13:04;11.10;;;8.37;;
16965;SDS011;8599;47.852;12.070;2023-06-10T05:15:31;9.80;;;7.80;;
16965;SDS011;8599;47.852;12.070;2023-06-10T05:17:58;9.70;;;6.73;;
16965;SDS011;8599;47.852;12.070;2023-06-10T05:20:26;13.47;;;7.83;;
16965;SDS011;8599;47.852;12.070;2023-06-10T05:22:53;9.83;;;7.43;;
16965;SDS011;8599;47.852;12.070;2023-06-10T05:25:20;9.67;;;6.80;;
16965;SDS011;8599;47.852;12.070;2023-06-10T05:27:47;9.83;;;7.10;;
16965;SDS011;8599;47.852;12.070;2023-06-10T05:30:14;15.93;;;8.10;;
16965;SDS011;8599;47.852;12.070;2023-06-10T05:32:43;8.53;;;7.37;;
16965;SDS011;8599;47.852;12.070;2023-06-10T05:35:10;11.53;;;7.77;;
16965;SDS011;8599;47.852;12.070;2023-06-10T05:37:38;11.73;;;7.73;;
16965;SDS011;8599;47.852;12.070;2023-06-10T05:40:06;12.50;;;8.07;;
16965;SDS011;8599;47.852;12.070;2023-06-10T05:42:33;12.30;;;6.93;;
16965;SDS011;8599;47.852;12.070;2023-06-10T05:45:00;10.73;;;7.73;;
16965;SDS011;8599;47.852;12.070;2023-06-10T05:47:27;10.07;;;8.30;;
16965;SDS011;8599;47.852;12.070;2023-06-10T05:49:54;11.57;;;8.10;;
16965;SDS011;8599;47.852;12.070;2023-06-10T05:52:21;15.63;;;7.90;;
16965;SDS011;8599;47.852;12.070;2023-06-10T05:54:49;7.50;;;6.63;;
16965;SDS011;8599;47.852;12.070;2023-06-10T05:57:16;11.27;;;7.37;;
16965;SDS011;8599;47.852;12.070;2023-06-10T05:59:43;13.80;;;8.40;;
16965;SDS011;8599;47.852;12.070;2023-06-10T06:02:10;8.43;;;6.33;;
16965;SDS011;8599;47.852;12.070;2023-06-10T06:04:37;12.37;;;8.10;;
16965;SDS011;8599;47.852;12.070;2023-06-10T06:07:04;11.20;;;8.43;;
16965;SDS011;8599;47.852;12.070;2023-06-10T06:09:31;10.47;;;6.93;;
16965;SDS011;8599;47.852;12.070;2023-06-10T06:11:59;9.77;;;7.23;;
16965;SDS011;8599;47.852;12.070;2023-06-10T06:14:26;11.60;;;7.53;;
16965;SDS011;8599;47.852;12.070;2023-06-10T06:16:52;8.50;;;7.10;;
16965;SDS011;8599;47.852;12.070;2023-06-10T06:19:19;9.30;;;6.77;;
16965;SDS011;8599;47.852;12.070;2023-06-10T06:21:46;15.23;;;8.03;;
16965;SDS011;8599;47.852;12.070;2023-06-10T06:24:13;11.57;;;7.43;;
16965;SDS011;8599;47.852;12.070;2023-06-10T06:26:41;9.50;;;7.40;;
16965;SDS011;8599;47.852;12.070;2023-06-10T06:29:09;8.37;;;7.27;;
16965;SDS011;8599;47.852;12.070;2023-06-10T06:31:36;12.20;;;8.00;;
16965;SDS011;8599;47.852;12.070;2023-06-10T06:34:03;8.63;;;7.17;;
16965;SDS011;8599;47.852;12.070;2023-06-10T06:36:29;8.53;;;5.97;;
16965;SDS011;8599;47.852;12.070;2023-06-10T06:38:56;9.37;;;6.73;;
16965;SDS011;8599;47.852;12.070;2023-06-10T06:41:23;9.13;;;6.70;;
16965;SDS011;8599;47.852;12.070;2023-06-10T06:43:50;8.97;;;6.60;;
16965;SDS011;8599;47.852;12.070;2023-06-10T06:46:18;12.27;;;7.00;;
16965;SDS011;8599;47.852;12.070;2023-06-10T06:48:46;9.70;;;6.63;;
16965;SDS011;8599;47.852;12.070;2023-06-10T06:51:13;8.27;;;6.33;;
16965;SDS011;8599;47.852;12.070;2023-06-10T06:53:40;13.30;;;7.00;;
16965;SDS011;8599;47.852;12.070;2023-06-10T06:56:09;9.97;;;7.07;;
16965;SDS011;8599;47.852;12.070;2023-06-10T06:58:36;9.80;;;6.63;;
16965;SDS011;8599;47.852;12.070;2023-06-10T07:01:03;8.80;;;6.13;;
16965;SDS011;8599;47.852;12.070;2023-06-10T07:03:31;8.03;;;5.90;;
16965;SDS011;8599;47.852;12.070;2023-06-10T07:05:58;9.73;;;6.60;;
16965;SDS011;8599;47.852;12.070;2023-06-10T07:08:25;7.15;;;6.10;;
16965;SDS011;8599;47.852;12.070;2023-06-10T07:10:51;8.27;;;6.57;;
16965;SDS011;8599;47.852;12.070;2023-06-10T07:13:19;10.40;;;7.00;;
16965;SDS011;8599;47.852;12.070;2023-06-10T07:15:45;7.10;;;5.70;;
16965;SDS011;8599;47.852;12.070;2023-06-10T07:18:12;9.80;;;6.43;;
16965;SDS011;8599;47.852;12.070;2023-06-10T07:20:42;8.90;;;6.32;;
16965;SDS011;8599;47.852;12.070;2023-06-10T07:23:08;8.30;;;6.57;;
16965;SDS011;8599;47.852;12.070;2023-06-10T07:25:35;8.97;;;6.73;;
16965;SDS011;8599;47.852;12.070;2023-06-10T07:28:02;8.30;;;6.13;;
16965;SDS011;8599;47.852;12.070;2023-06-10T07:30:29;8.97;;;6.73;;
16965;SDS011;8599;47.852;12.070;2023-06-10T07:32:56;11.17;;;7.40;;
16965;SDS011;8599;47.852;12.070;2023-06-10T07:35:23;9.73;;;7.00;;
16965;SDS011;8599;47.852;12.070;2023-06-10T07:37:51;11.53;;;7.00;;
16965;SDS011;8599;47.852;12.070;2023-06-10T07:40:18;6.93;;;6.22;;
16965;SDS011;8599;47.852;12.070;2023-06-10T07:42:45;9.17;;;6.03;;
16965;SDS011;8599;47.852;12.070;2023-06-10T07:45:11;8.95;;;6.88;;
16965;SDS011;8599;47.852;12.070;2023-06-10T07:47:38;9.55;;;6.95;;
16965;SDS011;8599;47.852;12.070;2023-06-10T07:50:05;24.27;;;8.07;;
16965;SDS011;8599;47.852;12.070;2023-06-10T07:52:32;9.20;;;7.35;;
16965;SDS011;8599;47.852;12.070;2023-06-10T07:55:01;9.82;;;7.32;;
16965;SDS011;8599;47.852;12.070;2023-06-10T07:57:27;10.23;;;6.55;;
16965;SDS011;8599;47.852;12.070;2023-06-10T07:59:56;10.93;;;7.47;;
16965;SDS011;8599;47.852;12.070;2023-06-10T08:02:25;9.52;;;7.03;;
16965;SDS011;8599;47.852;12.070;2023-06-10T08:04:52;10.43;;;7.53;;
16965;SDS011;8599;47.852;12.070;2023-06-10T08:07:18;9.35;;;6.40;;
16965;SDS011;8599;47.852;12.070;2023-06-10T08:09:45;8.73;;;7.35;;
16965;SDS011;8599;47.852;12.070;2023-06-10T08:12:13;9.30;;;6.73;;
16965;SDS011;8599;47.852;12.070;2023-06-10T08:14:40;12.45;;;8.13;;
16965;SDS011;8599;47.852;12.070;2023-06-10T08:17:07;11.27;;;7.20;;
16965;SDS011;8599;47.852;12.070;2023-06-10T08:19:34;8.27;;;7.03;;
16965;SDS011;8599;47.852;12.070;2023-06-10T08:22:00;8.70;;;7.47;;
16965;SDS011;8599;47.852;12.070;2023-06-10T08:24:27;10.13;;;8.18;;
16965;SDS011;8599;47.852;12.070;2023-06-10T08:26:54;9.38;;;7.43;;
16965;SDS011;8599;47.852;12.070;2023-06-10T08:29:23;15.60;;;8.23;;
16965;SDS011;8599;47.852;12.070;2023-06-10T08:31:50;11.25;;;7.78;;
16965;SDS011;8599;47.852;12.070;2023-06-10T08:34:17;8.02;;;6.80;;
16965;SDS011;8599;47.852;12.070;2023-06-10T08:36:43;9.73;;;6.47;;
16965;SDS011;8599;47.852;12.070;2023-06-10T08:39:10;13.32;;;7.32;;
16965;SDS011;8599;47.852;12.070;2023-06-10T08:41:41;13.05;;;7.13;;
16965;SDS011;8599;47.852;12.070;2023-06-10T08:44:10;8.02;;;6.55;;
16965;SDS011;8599;47.852;12.070;2023-06-10T08:46:45;10.75;;;7.15;;
16965;SDS011;8599;47.852;12.070;2023-06-10T08:49:16;9.88;;;7.50;;
16965;SDS011;8599;47.852;12.070;2023-06-10T08:51:46;10.27;;;7.53;;
16965;SDS011;8599;47.852;12.070;2023-06-10T08:54:15;11.25;;;8.63;;
16965;SDS011;8599;47.852;12.070;2023-06-10T08:56:47;9.40;;;7.35;;
16965;SDS011;8599;47.852;12.070;2023-06-10T08:59:16;8.98;;;7.55;;
16965;SDS011;8599;47.852;12.070;2023-06-10T09:01:43;9.98;;;7.60;;
16965;SDS011;8599;47.852;12.070;2023-06-10T09:04:13;9.50;;;6.95;;
16965;SDS011;8599;47.852;12.070;2023-06-10T09:06:41;9.32;;;7.30;;
16965;SDS011;8599;47.852;12.070;2023-06-10T09:09:08;11.38;;;8.15;;
16965;SDS011;8599;47.852;12.070;2023-06-10T09:11:35;10.05;;;6.97;;
16965;SDS011;8599;47.852;12.070;2023-06-10T09:14:04;8.57;;;6.97;;
16965;SDS011;8599;47.852;12.070;2023-06-10T09:16:31;9.43;;;6.88;;
16965;SDS011;8599;47.852;12.070;2023-06-10T09:18:59;8.82;;;6.57;;
16965;SDS011;8599;47.852;12.070;2023-06-10T09:21:26;11.88;;;7.15;;
16965;SDS011;8599;47.852;12.070;2023-06-10T09:23:52;7.30;;;5.50;;
16965;SDS011;8599;47.852;12.070;2023-06-10T09:26:20;8.40;;;6.60;;
16965;SDS011;8599;47.852;12.070;2023-06-10T09:28:57;9.60;;;7.93;;
16965;SDS011;8599;47.852;12.070;2023-06-10T09:31:28;12.23;;;7.80;;
16965;SDS011;8599;47.852;12.070;2023-06-10T09:34:05;13.05;;;7.60;;
16965;SDS011;8599;47.852;12.070;2023-06-10T09:36:33;8.50;;;6.82;;
16965;SDS011;8599;47.852;12.070;2023-06-10T09:38:59;11.02;;;8.20;;
16965;SDS011;8599;47.852;12.070;2023-06-10T09:41:31;9.10;;;7.10;;
16965;SDS011;8599;47.852;12.070;2023-06-10T09:43:59;10.30;;;6.88;;
16965;SDS011;8599;47.852;12.070;2023-06-10T09:46:25;9.35;;;6.95;;
16965;SDS011;8599;47.852;12.070;2023-06-10T09:48:57;8.60;;;6.00;;
16965;SDS011;8599;47.852;12.070;2023-06-10T09:51:26;9.07;;;6.25;;
16965;SDS011;8599;47.852;12.070;2023-06-10T09:53:53;8.15;;;6.28;;
16965;SDS011;8599;47.852;12.070;2023-06-10T09:56:20;7.75;;;6.43;;
16965;SDS011;8599;47.852;12.070;2023-06-10T09:58:58;7.88;;;5.82;;
16965;SDS011;8599;47.852;12.070;2023-06-10T10:01:25;15.30;;;8.32;;
16965;SDS011;8599;47.852;12.070;2023-06-10T10:03:51;6.45;;;5.68;;
16965;SDS011;8599;47.852;12.070;2023-06-10T10:06:19;8.77;;;6.10;;
16965;SDS011;8599;47.852;12.070;2023-06-10T10:08:48;6.82;;;5.80;;
16965;SDS011;8599;47.852;12.070;2023-06-10T10:11:16;9.43;;;5.45;;
16965;SDS011;8599;47.852;12.070;2023-06-10T10:13:44;9.43;;;5.50;;
16965;SDS011;8599;47.852;12.070;2023-06-10T10:16:15;18.77;;;8.80;;
16965;SDS011;8599;47.852;12.070;2023-06-10T10:18:43;7.47;;;5.70;;
16965;SDS011;8599;47.852;12.070;2023-06-10T10:21:15;7.72;;;4.93;;
16965;SDS011;8599;47.852;12.070;2023-06-10T10:23:44;4.93;;;4.13;;
16965;SDS011;8599;47.852;12.070;2023-06-10T10:26:27;5.85;;;4.97;;
16965;SDS011;8599;47.852;12.070;2023-06-10T10:28:58;6.93;;;4.70;;
16965;SDS011;8599;47.852;12.070;2023-06-10T10:31:34;5.07;;;4.13;;
16965;SDS011;8599;47.852;12.070;2023-06-10T10:34:02;5.13;;;4.45;;
16965;SDS011;8599;47.852;12.070;2023-06-10T10:36:32;8.73;;;4.95;;
16965;SDS011;8599;47.852;12.070;2023-06-10T10:39:01;6.07;;;4.93;;
16965;SDS011;8599;47.852;12.070;2023-06-10T10:41:30;5.32;;;4.60;;
16965;SDS011;8599;47.852;12.070;2023-06-10T10:43:58;8.23;;;4.45;;
16965;SDS011;8599;47.852;12.070;2023-06-10T10:46:26;9.88;;;4.95;;
16965;SDS011;8599;47.852;12.070;2023-06-10T10:48:53;6.35;;;4.53;;
16965;SDS011;8599;47.852;12.070;2023-06-10T10:51:22;4.95;;;4.30;;
16965;SDS011;8599;47.852;12.070;2023-06-10T10:56:39;5.50;;;4.18;;
16965;SDS011;8599;47.852;12.070;2023-06-10T10:59:13;5.13;;;4.25;;
16965;SDS011;8599;47.852;12.070;2023-06-10T11:01:43;6.00;;;4.97;;
16965;SDS011;8599;47.852;12.070;2023-06-10T11:04:11;4.80;;;4.38;;
16965;SDS011;8599;47.852;12.070;2023-06-10T11:06:38;4.93;;;3.97;;
16965;SDS011;8599;47.852;12.070;2023-06-10T11:11:56;5.05;;;3.97;;
16965;SDS011;8599;47.852;12.070;2023-06-10T11:14:26;5.50;;;3.92;;
16965;SDS011;8599;47.852;12.070;2023-06-10T11:16:56;5.57;;;4.28;;
16965;SDS011;8599;47.852;12.070;2023-06-10T11:19:32;4.75;;;4.03;;
16965;SDS011;8599;47.852;12.070;2023-06-10T11:22:00;4.38;;;3.97;;
16965;SDS011;8599;47.852;12.070;2023-06-10T11:24:29;4.20;;;3.80;;
16965;SDS011;8599;47.852;12.070;2023-06-10T11:29:54;4.55;;;3.78;;
16965;SDS011;8599;47.852;12.070;2023-06-10T11:32:43;4.45;;;4.05;;
16965;SDS011;8599;47.852;12.070;2023-06-10T11:35:11;5.43;;;3.80;;
16965;SDS011;8599;47.852;12.070;2023-06-10T11:37:38;4.07;;;3.67;;
16965;SDS011;8599;47.852;12.070;2023-06-10T11:40:08;4.90;;;3.80;;
16965;SDS011;8599;47.852;12.070;2023-06-10T11:42:38;4.00;;;3.22;;
16965;SDS011;8599;47.852;12.070;2023-06-10T11:45:06;3.72;;;3.10;;
16965;SDS011;8599;47.852;12.070;2023-06-10T11:47:34;4.15;;;3.10;;
16965;SDS011;8599;47.852;12.070;2023-06-10T11:50:01;5.75;;;3.75;;
16965;SDS011;8599;47.852;12.070;2023-06-10T11:52:28;4.22;;;3.50;;
16965;SDS011;8599;47.852;12.070;2023-06-10T11:54:57;3.75;;;3.20;;
16965;SDS011;8599;47.852;12.070;2023-06-10T11:57:25;3.65;;;3.35;;
16965;SDS011;8599;47.852;12.070;2023-06-10T11:59:52;3.95;;;3.25;;
16965;SDS011;8599;47.852;12.070;2023-06-10T12:02:22;2.97;;;2.67;;
16965;SDS011;8599;47.852;12.070;2023-06-10T12:04:50;3.28;;;2.95;;
16965;SDS011;8599;47.852;12.070;2023-06-10T12:07:17;4.63;;;3.20;;
16965;SDS011;8599;47.852;12.070;2023-06-10T12:09:44;3.47;;;3.15;;
16965;SDS011;8599;47.852;12.070;2023-06-10T12:12:11;5.68;;;3.00;;
16965;SDS011;8599;47.852;12.070;2023-06-10T12:14:52;4.60;;;3.13;;
16965;SDS011;8599;47.852;12.070;2023-06-10T12:17:21;5.25;;;3.38;;
16965;SDS011;8599;47.852;12.070;2023-06-10T12:19:49;3.60;;;2.70;;
16965;SDS011;8599;47.852;12.070;2023-06-10T12:22:16;2.70;;;2.50;;
16965;SDS011;8599;47.852;12.070;2023-06-10T12:24:44;6.35;;;3.55;;
16965;SDS011;8599;47.852;12.070;2023-06-10T12:27:11;3.55;;;3.03;;
16965;SDS011;8599;47.852;12.070;2023-06-10T12:29:39;3.33;;;2.75;;
16965;SDS011;8599;47.852;12.070;2023-06-10T12:32:17;4.90;;;3.92;;
16965;SDS011;8599;47.852;12.070;2023-06-10T12:34:45;3.97;;;3.17;;
16965;SDS011;8599;47.852;12.070;2023-06-10T12:37:12;4.22;;;3.40;;
16965;SDS011;8599;47.852;12.070;2023-06-10T12:39:39;5.60;;;3.60;;
16965;SDS011;8599;47.852;12.070;2023-06-10T12:42:08;4.00;;;3.60;;
16965;SDS011;8599;47.852;12.070;2023-06-10T12:44:37;6.80;;;4.18;;
16965;SDS011;8599;47.852;12.070;2023-06-10T12:47:09;4.72;;;3.50;;
16965;SDS011;8599;47.852;12.070;2023-06-10T12:49:39;4.70;;;4.25;;
16965;SDS011;8599;47.852;12.070;2023-06-10T12:52:06;4.57;;;3.58;;
16965;SDS011;8599;47.852;12.070;2023-06-10T12:54:33;7.75;;;4.47;;
16965;SDS011;8599;47.852;12.070;2023-06-10T12:57:00;6.85;;;4.22;;
16965;SDS011;8599;47.852;12.070;2023-06-10T12:59:27;5.38;;;4.40;;
16965;SDS011;8599;47.852;12.070;2023-06-10T13:01:54;4.75;;;4.22;;
16965;SDS011;8599;47.852;12.070;2023-06-10T13:04:21;4.80;;;4.22;;
16965;SDS011;8599;47.852;12.070;2023-06-10T13:06:49;4.50;;;3.88;;
16965;SDS011;8599;47.852;12.070;2023-06-10T13:09:19;5.63;;;4.22;;
16965;SDS011;8599;47.852;12.070;2023-06-10T13:11:45;5.40;;;4.78;;
16965;SDS011;8599;47.852;12.070;2023-06-10T13:14:12;8.23;;;4.93;;
16965;SDS011;8599;47.852;12.070;2023-06-10T13:16:39;5.28;;;3.67;;
16965;SDS011;8599;47.852;12.070;2023-06-10T13:19:06;5.75;;;3.85;;
16965;SDS011;8599;47.852;12.070;2023-06-10T13:21:33;5.38;;;3.70;;
16965;SDS011;8599;47.852;12.070;2023-06-10T13:24:01;4.47;;;3.65;;
16965;SDS011;8599;47.852;12.070;2023-06-10T13:26:28;4.82;;;3.97;;
16965;SDS011;8599;47.852;12.070;2023-06-10T13:28:55;3.58;;;3.08;;
16965;SDS011;8599;47.852;12.070;2023-06-10T13:31:22;3.88;;;3.47;;
16965;SDS011;8599;47.852;12.070;2023-06-10T13:33:49;4.78;;;3.70;;
16965;SDS011;8599;47.852;12.070;2023-06-10T13:36:16;4.85;;;3.65;;
16965;SDS011;8599;47.852;12.070;2023-06-10T13:38:42;4.05;;;3.65;;
16965;SDS011;8599;47.852;12.070;2023-06-10T13:41:11;3.50;;;2.90;;
16965;SDS011;8599;47.852;12.070;2023-06-10T13:43:38;3.95;;;3.53;;
16965;SDS011;8599;47.852;12.070;2023-06-10T13:46:05;3.78;;;3.20;;
16965;SDS011;8599;47.852;12.070;2023-06-10T13:48:32;4.45;;;3.25;;
16965;SDS011;8599;47.852;12.070;2023-06-10T13:50:59;3.85;;;3.28;;
16965;SDS011;8599;47.852;12.070;2023-06-10T13:53:26;3.30;;;3.00;;
16965;SDS011;8599;47.852;12.070;2023-06-10T13:55:53;3.60;;;3.08;;
16965;SDS011;8599;47.852;12.070;2023-06-10T13:58:21;3.35;;;3.00;;
16965;SDS011;8599;47.852;12.070;2023-06-10T14:00:48;6.85;;;4.47;;
16965;SDS011;8599;47.852;12.070;2023-06-10T14:03:15;4.22;;;2.97;;
16965;SDS011;8599;47.852;12.070;2023-06-10T14:05:42;3.20;;;2.72;;
16965;SDS011;8599;47.852;12.070;2023-06-10T14:08:08;4.75;;;3.40;;
16965;SDS011;8599;47.852;12.070;2023-06-10T14:10:35;4.05;;;2.72;;
16965;SDS011;8599;47.852;12.070;2023-06-10T14:13:02;3.85;;;3.25;;
16965;SDS011;8599;47.852;12.070;2023-06-10T14:15:31;3.60;;;3.28;;
16965;SDS011;8599;47.852;12.070;2023-06-10T14:17:58;3.47;;;2.80;;
16965;SDS011;8599;47.852;12.070;2023-06-10T14:20:25;3.05;;;2.55;;
16965;SDS011;8599;47.852;12.070;2023-06-10T14:22:56;3.20;;;2.92;;
16965;SDS011;8599;47.852;12.070;2023-06-10T14:25:23;3.70;;;3.17;;
16965;SDS011;8599;47.852;12.070;2023-06-10T14:27:50;4.53;;;3.13;;
16965;SDS011;8599;47.852;12.070;2023-06-10T14:30:17;6.18;;;3.08;;
16965;SDS011;8599;47.852;12.070;2023-06-10T14:32:45;5.05;;;3.05;;
16965;SDS011;8599;47.852;12.070;2023-06-10T14:35:11;4.55;;;3.72;;
16965;SDS011;8599;47.852;12.070;2023-06-10T14:37:38;4.35;;;2.60;;
16965;SDS011;8599;47.852;12.070;2023-06-10T14:40:05;2.72;;;2.53;;
16965;SDS011;8599;47.852;12.070;2023-06-10T14:42:33;2.88;;;2.63;;
16965;SDS011;8599;47.852;12.070;2023-06-10T14:45:00;3.85;;;2.70;;
16965;SDS011;8599;47.852;12.070;2023-06-10T14:47:26;3.00;;;2.70;;
16965;SDS011;8599;47.852;12.070;2023-06-10T14:49:55;2.58;;;2.20;;
16965;SDS011;8599;47.852;12.070;2023-06-10T14:52:21;3.10;;;2.80;;
16965;SDS011;8599;47.852;12.070;2023-06-10T14:54:48;2.72;;;2.50;;
16965;SDS011;8599;47.852;12.070;2023-06-10T14:57:15;2.50;;;2.30;;